In Rescue
 
Open Full Screen Window  High Contrast Mode
Wind Gusting 00 knots
05
October 25, 2021 4:20 PM CDT
Weather Information
Wind Direction
  060 °
Wind Speed
  05 kt (6 mph)
Wind Gust
  00 kt (0 mph)
Altimeter
30.12 in
Visibility
10 SM
Temperature
11° C
52° F
Dewpoint
-04° C
25° F
Humidity
35%
1hr Rain Fall
00.00 in.
24hr Rain Fall
00.00 in.
Sky Condition
Clear
VFR

METAR KLVN 252120Z AUTO 06005KT 10SM CLR 11/M04 A3012 RMK AO2

FAA Disclaimer: The data displayed is for advisory purposes only and is not to be used for flight planning or operations.